createdAt,value
2023-01-11T00:00:56.741Z,98964.03
2023-01-11T00:03:23.690Z,98968.44
2023-01-11T00:05:55.360Z,98968.44
2023-01-11T00:08:24.506Z,98969.38
2023-01-11T00:10:51.735Z,98965.00
2023-01-11T00:13:19.689Z,98963.31
2023-01-11T00:15:47.069Z,98965.09
2023-01-11T00:18:14.035Z,98972.94
2023-01-11T00:20:42.179Z,98980.78
2023-01-11T00:23:09.248Z,98981.66
2023-01-11T00:25:37.703Z,98986.00
2023-01-11T00:28:05.581Z,98984.28
2023-01-11T00:30:33.008Z,98991.22
2023-01-11T00:33:00.695Z,98995.56
2023-01-11T00:35:29.526Z,98991.22
2023-01-11T00:37:56.494Z,98993.84
2023-01-11T00:40:24.368Z,99002.53
2023-01-11T00:43:10.089Z,99000.81
2023-01-11T00:45:55.979Z,98996.47
2023-01-11T00:48:22.960Z,99006.09
2023-01-11T00:50:53.929Z,99003.50
2023-01-11T00:53:20.891Z,99016.56
2023-01-11T00:55:48.048Z,99019.16
2023-01-11T00:58:15.959Z,99018.28
2023-01-11T01:00:43.225Z,99013.06
2023-01-11T01:03:10.166Z,99018.31
2023-01-11T01:05:38.853Z,99013.94
2023-01-11T01:08:06.221Z,99008.72
2023-01-11T01:10:33.647Z,99005.22
2023-01-11T01:13:19.264Z,99007.03
2023-01-11T01:15:46.594Z,99007.06
2023-01-11T01:18:13.493Z,99003.56
2023-01-11T01:20:40.873Z,99008.78
2023-01-11T01:23:07.957Z,99003.59
2023-01-11T01:25:37.215Z,99007.06
2023-01-11T01:28:04.309Z,99008.84
2023-01-11T01:30:31.553Z,99003.66
2023-01-11T01:32:58.436Z,99007.16
2023-01-11T01:35:25.647Z,99008.94
2023-01-11T01:37:52.811Z,99012.47
2023-01-11T01:40:20.130Z,99009.84
2023-01-11T01:42:46.963Z,99005.59
2023-01-11T01:45:24.054Z,99009.09
2023-01-11T01:47:59.342Z,99011.72
2023-01-11T01:50:32.698Z,99016.13
2023-01-11T01:53:10.131Z,99018.72
2023-01-11T01:55:41.366Z,99024.84
2023-01-11T01:58:13.957Z,99023.97
2023-01-11T02:00:43.514Z,99027.47
2023-01-11T02:03:14.054Z,99027.53
2023-01-11T02:05:41.244Z,99030.09
2023-01-11T02:08:14.192Z,99028.31
2023-01-11T02:10:41.675Z,99035.22
2023-01-11T02:13:12.262Z,99026.50
2023-01-11T02:15:39.514Z,99030.88
2023-01-11T02:18:11.899Z,99025.63
2023-01-11T02:21:00.745Z,99028.16
2023-01-11T02:23:36.796Z,99030.00
2023-01-11T02:26:06.872Z,99035.16
2023-01-11T02:29:25.176Z,99030.88
2023-01-11T02:31:56.839Z,99030.94
2023-01-11T02:34:44.736Z,99032.69
2023-01-11T02:37:37.751Z,99030.13
2023-01-11T02:40:16.524Z,99036.16
2023-01-11T02:43:11.840Z,99037.19
2023-01-11T02:45:52.611Z,99036.25
2023-01-11T02:51:05.435Z,99044.13
2023-01-11T02:53:43.526Z,99043.28
2023-01-11T02:56:14.708Z,99045.91
2023-01-11T02:58:45.339Z,99050.25
2023-01-11T03:01:13.338Z,99054.56
2023-01-11T03:03:40.642Z,99066.72
2023-01-11T03:06:12.148Z,99064.16
2023-01-11T03:08:48.064Z,99060.69
2023-01-11T03:11:45.693Z,99058.88
2023-01-11T03:14:42.922Z,99065.06
2023-01-11T03:17:21.833Z,99051.19
2023-01-11T03:19:53.402Z,99058.22
2023-01-11T03:22:56.068Z,99053.00
2023-01-11T03:25:39.405Z,99057.38
2023-01-11T03:28:06.217Z,99053.00
2023-01-11T03:30:42.323Z,99053.91
2023-01-11T03:33:22.517Z,99060.91
2023-01-11T03:36:01.388Z,99054.75
2023-01-11T03:38:38.085Z,99057.34
2023-01-11T03:41:11.723Z,99058.19
2023-01-11T03:43:40.560Z,99058.13
2023-01-11T03:46:14.804Z,99057.38
2023-01-11T03:48:54.008Z,99052.97
2023-01-11T03:51:27.931Z,99045.97
2023-01-11T03:53:59.442Z,99044.28
2023-01-11T03:56:36.772Z,99041.66
2023-01-11T03:59:03.869Z,99038.16
2023-01-11T04:01:31.311Z,99036.38
2023-01-11T04:03:58.227Z,99046.84
2023-01-11T04:06:25.883Z,99052.91
2023-01-11T04:08:52.776Z,99052.06
2023-01-11T04:11:19.935Z,99051.22
2023-01-11T04:13:46.851Z,99062.56
2023-01-11T04:16:14.005Z,99060.78
2023-01-11T04:18:41.277Z,99063.44
2023-01-11T04:21:08.451Z,99067.81
2023-01-11T04:23:35.799Z,99082.53
2023-01-11T04:26:03.022Z,99084.31
2023-01-11T04:28:29.843Z,99092.97
2023-01-11T04:30:56.960Z,99088.63
2023-01-11T04:33:23.811Z,99094.69
2023-01-11T04:35:51.049Z,99100.75
2023-01-11T04:38:18.942Z,99106.03
2023-01-11T04:40:48.308Z,99099.91
2023-01-11T04:43:15.192Z,99100.84
2023-01-11T04:45:42.353Z,99092.19
2023-01-11T04:48:09.264Z,99097.44
2023-01-11T04:50:36.465Z,99098.28
2023-01-11T04:53:03.303Z,99087.84
2023-01-11T04:55:30.421Z,99086.16
2023-01-11T04:57:57.270Z,99083.53
2023-01-11T05:00:24.414Z,99091.38
2023-01-11T05:02:51.332Z,99095.69
2023-01-11T05:05:18.672Z,99090.47
2023-01-11T05:07:45.593Z,99098.28
2023-01-11T05:10:12.835Z,99104.34
2023-01-11T05:12:39.769Z,99097.34
2023-01-11T05:15:07.797Z,99090.41
2023-01-11T05:17:34.639Z,99081.69
2023-01-11T05:20:01.819Z,99079.94
2023-01-11T05:22:28.721Z,99085.16
2023-01-11T05:24:55.971Z,99090.34
2023-01-11T05:27:22.834Z,99084.25
2023-01-11T05:29:50.065Z,99081.63
2023-01-11T05:32:16.906Z,99085.19
2023-01-11T05:34:44.170Z,99093.91
2023-01-11T05:37:11.096Z,99095.78
2023-01-11T05:39:38.335Z,99097.63
2023-01-11T05:42:05.279Z,99099.41
2023-01-11T05:44:50.953Z,99101.97
2023-01-11T05:47:17.881Z,99096.78
2023-01-11T05:49:45.089Z,99102.84
2023-01-11T05:52:12.455Z,99101.91
2023-01-11T05:54:39.737Z,99099.31
2023-01-11T05:57:10.700Z,99100.16
2023-01-11T05:59:38.084Z,99100.16
2023-01-11T06:02:05.203Z,99101.88
2023-01-11T06:04:32.513Z,99101.00
2023-01-11T06:06:59.396Z,99100.16
2023-01-11T06:09:26.807Z,99100.16
2023-01-11T06:11:53.703Z,99096.69
2023-01-11T06:14:20.829Z,99106.25
2023-01-11T06:16:47.859Z,99099.31
2023-01-11T06:19:15.112Z,99103.69
2023-01-11T06:21:42.021Z,99100.25
2023-01-11T06:24:09.313Z,99107.25
2023-01-11T06:26:36.204Z,99108.94
2023-01-11T06:29:03.444Z,99102.88
2023-01-11T06:31:30.247Z,99101.97
2023-01-11T06:33:57.385Z,99102.84
2023-01-11T06:36:24.314Z,99101.06
2023-01-11T06:38:52.511Z,99094.03
2023-01-11T06:41:19.947Z,99095.72
2023-01-11T06:43:47.173Z,99100.91
2023-01-11T06:46:15.852Z,99099.13
2023-01-11T06:48:44.045Z,99098.22
2023-01-11T06:51:12.222Z,99090.34
2023-01-11T06:53:41.119Z,99084.22
2023-01-11T06:56:10.978Z,99088.59
2023-01-11T06:58:38.514Z,99092.09
2023-01-11T07:01:05.959Z,99089.47
2023-01-11T07:03:33.336Z,99095.63
2023-01-11T07:06:02.256Z,99107.91
2023-01-11T07:08:29.389Z,99101.00
2023-01-11T07:10:56.505Z,99104.53
2023-01-11T07:13:23.719Z,99101.19
2023-01-11T07:15:54.228Z,99102.94
2023-01-11T07:18:22.125Z,99108.25
2023-01-11T07:20:50.951Z,99100.50
2023-01-11T07:23:18.008Z,99098.81
2023-01-11T07:25:44.981Z,99100.44
2023-01-11T07:28:12.250Z,99100.34
2023-01-11T07:30:56.279Z,99105.47
2023-01-11T07:33:25.142Z,99101.94
2023-01-11T07:35:52.079Z,99092.31
2023-01-11T07:38:19.472Z,99090.47
2023-01-11T07:40:46.539Z,99095.66
2023-01-11T07:43:19.446Z,99079.16
2023-01-11T07:45:49.733Z,99084.41
2023-01-11T07:48:21.470Z,99089.69
2023-01-11T07:50:49.005Z,99090.63
2023-01-11T07:53:16.797Z,99087.13
2023-01-11T07:55:43.767Z,99079.28
2023-01-11T07:58:15.147Z,99093.09
2023-01-11T08:00:42.298Z,99095.63
2023-01-11T08:03:10.300Z,99085.97
2023-01-11T08:05:37.632Z,99085.03
2023-01-11T08:08:05.736Z,99098.00
2023-01-11T08:10:33.362Z,99094.38
2023-01-11T08:13:19.390Z,99096.06
2023-01-11T08:15:46.348Z,99108.19
2023-01-11T08:18:14.201Z,99115.09
2023-01-11T08:20:41.258Z,99122.91
2023-01-11T08:23:10.474Z,99121.16
2023-01-11T08:25:38.142Z,99123.72
2023-01-11T08:28:07.015Z,99118.44
2023-01-11T08:30:34.580Z,99130.59
2023-01-11T08:33:02.657Z,99114.00
2023-01-11T08:35:30.833Z,99116.72
2023-01-11T08:37:58.154Z,99121.16
2023-01-11T08:40:25.780Z,99124.59
2023-01-11T08:42:57.277Z,99127.16
2023-01-11T08:45:25.138Z,99130.69
2023-01-11T08:47:53.420Z,99136.75
2023-01-11T08:50:22.316Z,99138.44
2023-01-11T08:52:51.386Z,99134.06
2023-01-11T08:55:19.692Z,99142.75
2023-01-11T08:57:47.068Z,99140.19
2023-01-11T09:00:14.625Z,99132.38
2023-01-11T09:02:41.906Z,99133.19
2023-01-11T09:05:09.498Z,99133.09
2023-01-11T09:07:36.765Z,99127.84
2023-01-11T09:10:04.238Z,99136.53
2023-01-11T09:12:32.841Z,99132.94
2023-01-11T09:15:00.785Z,99127.56
2023-01-11T09:17:28.855Z,99120.28
2023-01-11T09:19:56.152Z,99118.25
2023-01-11T09:22:23.756Z,99104.06
2023-01-11T09:24:50.755Z,99097.78
2023-01-11T09:27:19.169Z,99099.44
2023-01-11T09:29:46.360Z,99097.69
2023-01-11T09:32:13.709Z,99101.13
2023-01-11T09:34:42.895Z,99100.31
2023-01-11T09:37:10.111Z,99099.44
2023-01-11T09:39:37.336Z,99098.72
2023-01-11T09:42:31.522Z,99084.00
2023-01-11T09:45:21.828Z,99085.09
2023-01-11T09:48:11.318Z,99079.88
2023-01-11T09:50:43.489Z,99076.47
2023-01-11T09:53:38.510Z,99070.47
2023-01-11T09:56:12.051Z,99074.78
2023-01-11T09:58:54.499Z,99082.50
2023-01-11T10:01:45.740Z,99085.25
2023-01-11T10:04:47.505Z,99068.81
2023-01-11T10:07:30.145Z,99067.16
2023-01-11T10:18:37.856Z,99056.88
2023-01-11T10:19:41.063Z,99054.25
2023-01-11T10:22:16.752Z,99059.47
2023-01-11T10:24:52.880Z,99055.16
2023-01-11T10:27:41.075Z,99059.63
2023-01-11T10:30:34.285Z,99052.69
2023-01-11T10:33:50.513Z,99049.97
2023-01-11T10:36:50.028Z,99035.78
2023-01-11T10:39:47.479Z,99036.50
2023-01-11T10:42:24.153Z,99032.56
2023-01-11T10:45:00.626Z,99037.25
2023-01-11T10:47:43.403Z,99028.75
2023-01-11T10:50:24.416Z,99028.84
2023-01-11T10:52:52.123Z,99018.81
2023-01-11T10:55:29.723Z,99019.50
2023-01-11T10:58:21.180Z,99019.34
2023-01-11T11:00:53.476Z,99014.09
2023-01-11T11:03:49.458Z,99014.91
2023-01-11T11:06:25.393Z,99009.88
2023-01-11T11:09:27.181Z,99013.75
2023-01-11T11:12:00.946Z,99003.25
2023-01-11T11:14:35.210Z,99002.28
2023-01-11T11:17:25.754Z,98998.94
2023-01-11T11:19:53.416Z,98998.13
2023-01-11T11:22:21.162Z,98990.38
2023-01-11T11:25:33.773Z,98991.34
2023-01-11T11:28:02.475Z,98982.28
2023-01-11T11:30:45.714Z,98982.38
2023-01-11T11:33:26.576Z,98980.63
2023-01-11T11:36:04.873Z,98976.84
2023-01-11T11:38:40.081Z,98975.34
2023-01-11T11:41:17.174Z,98967.25
2023-01-11T11:43:48.300Z,98961.81
2023-01-11T11:46:19.381Z,98962.91
2023-01-11T11:49:09.980Z,98955.59
2023-01-11T11:51:37.806Z,98953.41
2023-01-11T11:54:05.237Z,98961.78
2023-01-11T11:56:37.962Z,98954.13
2023-01-11T11:59:14.540Z,98969.25
2023-01-11T12:01:46.958Z,98963.91
2023-01-11T12:04:19.932Z,98952.59
2023-01-11T12:07:03.816Z,98958.47
2023-01-11T12:09:33.198Z,98955.53
2023-01-11T12:12:00.903Z,98951.88
2023-01-11T12:14:35.129Z,98961.13
2023-01-11T12:17:26.132Z,98951.28
2023-01-11T12:19:53.609Z,98967.19
2023-01-11T12:22:29.183Z,98962.34
2023-01-11T12:25:07.969Z,98950.50
2023-01-11T12:27:43.681Z,98956.72
2023-01-11T12:30:19.188Z,98954.47
2023-01-11T12:33:06.404Z,98952.81
2023-01-11T12:35:50.560Z,98959.09
2023-01-11T12:38:47.201Z,98955.03
2023-01-11T12:41:51.839Z,98959.66
2023-01-11T12:44:42.622Z,98960.47
2023-01-11T12:47:31.135Z,98962.16
2023-01-11T12:50:19.598Z,98956.13
2023-01-11T12:52:49.747Z,98952.72
2023-01-11T12:55:55.538Z,98958.97
2023-01-11T12:58:35.672Z,98962.16
2023-01-11T13:01:39.900Z,98962.63
2023-01-11T13:04:15.856Z,98959.16
2023-01-11T13:07:20.441Z,98959.16
2023-01-11T13:09:50.686Z,98972.22
2023-01-11T13:12:35.003Z,98970.66
2023-01-11T13:15:22.611Z,98966.38
2023-01-11T13:17:55.235Z,98968.91
2023-01-11T13:20:28.286Z,98971.59
2023-01-11T13:23:03.754Z,98966.41
2023-01-11T13:25:35.351Z,98975.97
2023-01-11T13:28:23.933Z,98966.59
2023-01-11T13:30:51.755Z,98968.47
2023-01-11T13:33:22.504Z,98966.88
2023-01-11T13:35:56.702Z,98965.13
2023-01-11T13:38:44.818Z,98965.03
2023-01-11T13:41:26.793Z,98965.22
2023-01-11T13:44:18.876Z,98963.47
2023-01-11T13:47:00.099Z,98969.69
2023-01-11T13:50:06.619Z,98956.81
2023-01-11T13:53:03.500Z,98967.28
2023-01-11T13:55:50.960Z,98949.03
2023-01-11T13:58:21.234Z,98950.72
2023-01-11T14:00:57.447Z,98951.59
2023-01-11T14:03:48.740Z,98955.16
2023-01-11T14:06:34.133Z,98963.94
2023-01-11T14:09:07.839Z,98962.16
2023-01-11T14:11:52.932Z,98954.25
2023-01-11T14:14:56.894Z,98959.41
2023-01-11T14:17:29.560Z,98952.34
2023-01-11T14:19:56.726Z,98961.03
2023-01-11T14:22:45.587Z,98966.28
2023-01-11T14:25:18.582Z,98971.78
2023-01-11T14:28:23.586Z,98968.31
2023-01-11T14:31:09.034Z,98968.41
2023-01-11T14:33:57.023Z,98963.28
2023-01-11T14:36:51.895Z,98958.03
2023-01-11T14:39:21.502Z,98963.19
2023-01-11T14:42:03.183Z,98980.72
2023-01-11T14:44:39.062Z,98979.78
2023-01-11T14:47:27.593Z,98965.03
2023-01-11T14:50:15.177Z,98967.69
2023-01-11T14:52:44.647Z,98960.84
2023-01-11T14:55:37.710Z,98960.03
2023-01-11T14:58:18.302Z,98952.97
2023-01-11T15:00:45.171Z,98951.25
2023-01-11T15:03:13.263Z,98963.41
2023-01-11T15:06:00.521Z,98950.25
2023-01-11T15:08:41.882Z,98956.31
2023-01-11T15:11:47.257Z,98955.53
2023-01-11T15:14:27.531Z,98944.09
2023-01-11T15:17:18.607Z,98932.88
2023-01-11T15:19:47.421Z,98940.72
2023-01-11T15:22:32.139Z,98921.53
2023-01-11T15:25:22.122Z,98928.44
2023-01-11T15:27:50.299Z,98934.50
2023-01-11T15:30:34.054Z,98931.94
2023-01-11T15:33:19.512Z,98927.50
2023-01-11T15:35:56.133Z,98933.66
2023-01-11T15:38:49.333Z,98939.81
2023-01-11T15:42:04.001Z,98936.28
2023-01-11T15:44:56.982Z,98931.19
2023-01-11T15:47:35.989Z,98949.56
2023-01-11T15:50:24.438Z,98943.53
2023-01-11T15:53:29.571Z,98940.84
2023-01-11T15:56:11.493Z,98932.22
2023-01-11T15:58:59.587Z,98928.72
2023-01-11T16:01:28.650Z,98924.41
2023-01-11T16:04:01.598Z,98932.22
2023-01-11T16:06:40.419Z,98926.91
2023-01-11T16:09:26.363Z,98918.25
2023-01-11T16:12:06.541Z,98926.03
2023-01-11T16:14:51.648Z,98913.88
2023-01-11T16:17:22.453Z,98921.66
2023-01-11T16:19:55.446Z,98904.25
2023-01-11T16:22:25.895Z,98916.44
2023-01-11T16:24:57.163Z,98913.06
2023-01-11T16:27:27.719Z,98912.94
2023-01-11T16:29:55.887Z,98919.94
2023-01-11T16:32:33.797Z,98918.16
2023-01-11T16:35:02.978Z,98907.72
2023-01-11T16:37:29.738Z,98908.50
2023-01-11T16:40:11.401Z,98905.97
2023-01-11T16:42:45.325Z,98901.69
2023-01-11T16:45:18.730Z,98898.25
2023-01-11T16:48:06.326Z,98902.63
2023-01-11T16:50:35.250Z,98900.84
2023-01-11T16:53:10.245Z,98900.78
2023-01-11T16:55:44.256Z,98896.38
2023-01-11T16:58:32.793Z,98902.41
2023-01-11T17:01:07.122Z,98897.19
2023-01-11T17:03:35.139Z,98901.50
2023-01-11T17:06:08.408Z,98894.50
2023-01-11T17:08:38.296Z,98892.78
2023-01-11T17:11:19.722Z,98893.59
2023-01-11T17:14:03.766Z,98895.34
2023-01-11T17:16:36.526Z,98891.88
2023-01-11T17:19:13.169Z,98895.31
2023-01-11T17:21:41.261Z,98890.97
2023-01-11T17:24:13.539Z,98886.78
2023-01-11T17:26:50.251Z,98887.72
2023-01-11T17:29:44.534Z,98877.53
2023-01-11T17:32:21.321Z,98881.78
2023-01-11T17:34:51.038Z,98884.25
2023-01-11T17:37:19.050Z,98877.28
2023-01-11T17:39:50.171Z,98875.59
2023-01-11T17:42:36.770Z,98874.78
2023-01-11T17:45:21.984Z,98876.44
2023-01-11T17:47:52.655Z,98864.41
2023-01-11T17:50:28.762Z,98863.50
2023-01-11T17:53:29.168Z,98853.13
2023-01-11T17:56:01.757Z,98853.06
2023-01-11T17:58:31.918Z,98853.91
2023-01-11T18:01:05.369Z,98858.38
2023-01-11T18:03:43.620Z,98854.09
2023-01-11T18:06:32.246Z,98861.03
2023-01-11T18:09:01.365Z,98859.25
2023-01-11T18:11:29.703Z,98853.06
2023-01-11T18:13:59.976Z,98855.69
2023-01-11T18:16:27.310Z,98852.22
2023-01-11T18:18:55.462Z,98858.34
2023-01-11T18:21:25.336Z,98857.50
2023-01-11T18:24:11.031Z,98854.06
2023-01-11T18:26:43.331Z,98859.25
2023-01-11T18:29:38.804Z,98860.16
2023-01-11T18:32:08.820Z,98853.31
2023-01-11T18:34:36.254Z,98860.22
2023-01-11T18:37:07.742Z,98860.22
2023-01-11T18:39:35.720Z,98859.34
2023-01-11T18:42:08.261Z,98862.78
2023-01-11T18:44:40.704Z,98868.00
2023-01-11T18:47:20.608Z,98870.69
2023-01-11T18:49:49.165Z,98870.69
2023-01-11T18:52:17.113Z,98875.03
2023-01-11T18:54:44.465Z,98861.97
2023-01-11T18:57:11.668Z,98871.59
2023-01-11T18:59:39.153Z,98873.34
2023-01-11T19:02:22.810Z,98867.22
2023-01-11T19:04:51.235Z,98865.44
2023-01-11T19:07:18.566Z,98862.84
2023-01-11T19:09:45.784Z,98873.25
2023-01-11T19:12:13.436Z,98870.78
2023-01-11T19:14:40.623Z,98868.16
2023-01-11T19:17:09.103Z,98863.84
2023-01-11T19:19:36.702Z,98857.78
2023-01-11T19:22:04.993Z,98858.66
2023-01-11T19:24:32.936Z,98863.84
2023-01-11T19:26:59.920Z,98859.50
2023-01-11T19:29:27.451Z,98860.41
2023-01-11T19:31:55.802Z,98863.97
2023-01-11T19:34:24.188Z,98853.59
2023-01-11T19:36:52.342Z,98854.47
2023-01-11T19:39:19.845Z,98854.53
2023-01-11T19:41:57.704Z,98864.06
2023-01-11T19:44:27.215Z,98860.63
2023-01-11T19:47:09.769Z,98868.50
2023-01-11T19:49:38.046Z,98863.28
2023-01-11T19:52:05.819Z,98852.88
2023-01-11T19:54:33.005Z,98847.56
2023-01-11T19:56:59.991Z,98858.84
2023-01-11T19:59:27.201Z,98853.66
2023-01-11T20:01:54.038Z,98846.72
2023-01-11T20:04:21.323Z,98844.13
2023-01-11T20:06:52.177Z,98845.88
2023-01-11T20:09:21.108Z,98846.81
2023-01-11T20:11:50.196Z,98845.97
2023-01-11T20:14:17.484Z,98850.28
2023-01-11T20:16:44.392Z,98839.91
2023-01-11T20:19:12.151Z,98839.94
2023-01-11T20:21:39.050Z,98846.94
2023-01-11T20:24:06.587Z,98848.75
2023-01-11T20:26:36.840Z,98854.09
2023-01-11T20:29:05.632Z,98851.72
2023-01-11T20:31:35.480Z,98849.19
2023-01-11T20:34:14.363Z,98855.50
2023-01-11T20:36:42.605Z,98846.91
2023-01-11T20:39:10.952Z,98850.47
2023-01-11T20:41:46.979Z,98844.50
2023-01-11T20:44:34.379Z,98845.47
2023-01-11T20:47:01.308Z,98839.38
2023-01-11T20:49:29.901Z,98833.38
2023-01-11T20:51:57.230Z,98835.16
2023-01-11T20:54:24.584Z,98836.97
2023-01-11T20:56:51.573Z,98839.59
2023-01-11T20:59:20.482Z,98833.56
2023-01-11T21:01:49.171Z,98839.72
2023-01-11T21:04:18.336Z,98837.22
2023-01-11T21:06:50.253Z,98833.78
2023-01-11T21:09:18.758Z,98830.34
2023-01-11T21:11:52.641Z,98828.63
2023-01-11T21:14:21.463Z,98826.88
2023-01-11T21:16:49.203Z,98820.81
2023-01-11T21:19:16.506Z,98818.25
2023-01-11T21:21:43.751Z,98820.00
2023-01-11T21:24:15.466Z,98818.31
2023-01-11T21:26:45.298Z,98808.75
2023-01-11T21:29:13.199Z,98821.81
2023-01-11T21:31:41.025Z,98818.38
2023-01-11T21:34:10.920Z,98824.56
2023-01-11T21:36:38.082Z,98826.31
2023-01-11T21:39:05.628Z,98830.63
2023-01-11T21:41:52.500Z,98840.25
2023-01-11T21:44:21.112Z,98832.50
2023-01-11T21:46:48.495Z,98837.72
2023-01-11T21:49:16.454Z,98837.78
2023-01-11T21:51:44.034Z,98832.59
2023-01-11T21:54:13.282Z,98833.50
2023-01-11T21:56:42.026Z,98831.81
2023-01-11T21:59:09.818Z,98839.66
2023-01-11T22:01:38.639Z,98836.28
2023-01-11T22:04:13.285Z,98852.00
2023-01-11T22:06:42.261Z,98838.16
2023-01-11T22:09:11.712Z,98839.88
2023-01-11T22:11:38.766Z,98838.13
2023-01-11T22:14:08.709Z,98836.34
2023-01-11T22:16:36.708Z,98832.84
2023-01-11T22:19:07.500Z,98841.53
2023-01-11T22:21:36.040Z,98841.56
2023-01-11T22:24:05.008Z,98840.69
2023-01-11T22:26:33.696Z,98837.25
2023-01-11T22:29:12.855Z,98833.81
2023-01-11T22:31:45.968Z,98838.13
2023-01-11T22:34:13.957Z,98832.91
2023-01-11T22:36:41.549Z,98845.06
2023-01-11T22:39:09.118Z,98842.50
2023-01-11T22:41:36.119Z,98851.22
2023-01-11T22:44:03.686Z,98848.69
2023-01-11T22:46:30.631Z,98847.91
2023-01-11T22:48:58.784Z,98847.09
2023-01-11T22:51:26.729Z,98837.63
2023-01-11T22:53:55.320Z,98838.53
2023-01-11T22:56:25.880Z,98830.75
2023-01-11T22:58:56.985Z,98831.69
2023-01-11T23:01:26.719Z,98828.22
2023-01-11T23:03:54.796Z,98827.41
2023-01-11T23:06:25.573Z,98834.38
2023-01-11T23:08:53.683Z,98832.63
2023-01-11T23:11:45.427Z,98837.81
2023-01-11T23:14:14.914Z,98836.97
2023-01-11T23:16:42.354Z,98838.72
2023-01-11T23:19:09.814Z,98839.63
2023-01-11T23:21:40.794Z,98834.41
2023-01-11T23:24:08.538Z,98837.88
2023-01-11T23:26:35.842Z,98846.53
2023-01-11T23:29:02.788Z,98836.13
2023-01-11T23:31:30.766Z,98829.22
2023-01-11T23:34:00.173Z,98825.78
2023-01-11T23:36:33.208Z,98831.84
2023-01-11T23:39:00.286Z,98828.44
2023-01-11T23:41:46.118Z,98832.78
2023-01-11T23:44:15.371Z,98833.72
2023-01-11T23:47:02.235Z,98835.47
2023-01-11T23:49:30.074Z,98827.78
2023-01-11T23:51:57.729Z,98821.75
2023-01-11T23:54:30.287Z,98824.38
2023-01-11T23:56:58.191Z,98826.97
2023-01-11T23:59:25.182Z,98820.97
